sensor_id;sensor_type;location;lat;lon;timestamp;pressure;altitude;pressure_sealevel;temperature;humidity
62201;BME280;48197;42.732;27.192;2023-03-16T00:02:12;98688.63;;;7.07;100.00
62201;BME280;48197;42.732;27.192;2023-03-16T00:04:39;98697.25;;;7.09;100.00
62201;BME280;48197;42.732;27.192;2023-03-16T00:07:07;98693.69;;;7.12;100.00
62201;BME280;48197;42.732;27.192;2023-03-16T00:09:34;98687.38;;;7.15;100.00
62201;BME280;48197;42.732;27.192;2023-03-16T00:12:02;98689.28;;;7.22;100.00
62201;BME280;48197;42.732;27.192;2023-03-16T00:14:30;98691.97;;;7.29;100.00
62201;BME280;48197;42.732;27.192;2023-03-16T00:16:57;98691.94;;;7.33;100.00
62201;BME280;48197;42.732;27.192;2023-03-16T00:19:24;98690.50;;;7.21;100.00
62201;BME280;48197;42.732;27.192;2023-03-16T00:21:51;98683.16;;;7.04;100.00
62201;BME280;48197;42.732;27.192;2023-03-16T00:24:18;98677.34;;;6.94;100.00
62201;BME280;48197;42.732;27.192;2023-03-16T00:26:44;98673.06;;;6.93;100.00
62201;BME280;48197;42.732;27.192;2023-03-16T00:29:11;98668.72;;;6.96;100.00
62201;BME280;48197;42.732;27.192;2023-03-16T00:31:38;98675.34;;;7.02;100.00
62201;BME280;48197;42.732;27.192;2023-03-16T00:34:04;98672.53;;;7.06;100.00
62201;BME280;48197;42.732;27.192;2023-03-16T00:36:31;98678.41;;;7.11;100.00
62201;BME280;48197;42.732;27.192;2023-03-16T00:38:59;98675.47;;;7.29;100.00
62201;BME280;48197;42.732;27.192;2023-03-16T00:41:25;98669.44;;;7.45;100.00
62201;BME280;48197;42.732;27.192;2023-03-16T00:43:52;98669.81;;;7.47;100.00
62201;BME280;48197;42.732;27.192;2023-03-16T00:46:18;98682.06;;;7.39;100.00
62201;BME280;48197;42.732;27.192;2023-03-16T00:48:45;98678.00;;;7.13;100.00
62201;BME280;48197;42.732;27.192;2023-03-16T00:51:13;98675.00;;;6.93;100.00
62201;BME280;48197;42.732;27.192;2023-03-16T00:53:41;98672.78;;;6.81;100.00
62201;BME280;48197;42.732;27.192;2023-03-16T00:56:08;98678.31;;;6.70;100.00
62201;BME280;48197;42.732;27.192;2023-03-16T00:58:36;98685.47;;;6.60;100.00
62201;BME280;48197;42.732;27.192;2023-03-16T01:01:03;98677.66;;;6.55;100.00
62201;BME280;48197;42.732;27.192;2023-03-16T01:03:31;98674.50;;;6.57;100.00
62201;BME280;48197;42.732;27.192;2023-03-16T01:06:02;98669.06;;;6.49;100.00
62201;BME280;48197;42.732;27.192;2023-03-16T01:08:28;98671.91;;;6.35;100.00
62201;BME280;48197;42.732;27.192;2023-03-16T01:10:55;98664.81;;;6.41;100.00
62201;BME280;48197;42.732;27.192;2023-03-16T01:13:22;98658.38;;;6.62;100.00
62201;BME280;48197;42.732;27.192;2023-03-16T01:15:51;98658.22;;;6.84;100.00
62201;BME280;48197;42.732;27.192;2023-03-16T01:18:18;98645.94;;;6.95;100.00
62201;BME280;48197;42.732;27.192;2023-03-16T01:20:45;98647.06;;;7.02;100.00
62201;BME280;48197;42.732;27.192;2023-03-16T01:23:16;98653.28;;;7.09;100.00
62201;BME280;48197;42.732;27.192;2023-03-16T01:25:43;98660.69;;;7.16;100.00
62201;BME280;48197;42.732;27.192;2023-03-16T01:28:21;98688.84;;;6.82;100.00
62201;BME280;48197;42.732;27.192;2023-03-16T01:30:53;98694.63;;;6.39;100.00
62201;BME280;48197;42.732;27.192;2023-03-16T01:33:24;98702.97;;;6.21;100.00
62201;BME280;48197;42.732;27.192;2023-03-16T01:35:54;98709.66;;;6.13;100.00
62201;BME280;48197;42.732;27.192;2023-03-16T01:38:21;98716.34;;;6.05;100.00
62201;BME280;48197;42.732;27.192;2023-03-16T01:40:48;98726.16;;;5.99;100.00
62201;BME280;48197;42.732;27.192;2023-03-16T01:43:17;98721.84;;;5.94;100.00
62201;BME280;48197;42.732;27.192;2023-03-16T01:48:29;98736.75;;;5.82;100.00
62201;BME280;48197;42.732;27.192;2023-03-16T01:51:03;98740.66;;;5.88;100.00
62201;BME280;48197;42.732;27.192;2023-03-16T01:53:30;98741.81;;;5.91;100.00
62201;BME280;48197;42.732;27.192;2023-03-16T01:55:58;98739.88;;;5.95;100.00
62201;BME280;48197;42.732;27.192;2023-03-16T01:58:27;98742.19;;;6.04;100.00
62201;BME280;48197;42.732;27.192;2023-03-16T02:00:54;98740.59;;;6.13;100.00
62201;BME280;48197;42.732;27.192;2023-03-16T02:03:22;98746.03;;;6.24;100.00
62201;BME280;48197;42.732;27.192;2023-03-16T02:06:32;98749.94;;;6.34;100.00
62201;BME280;48197;42.732;27.192;2023-03-16T02:08:40;98748.31;;;6.44;100.00
62201;BME280;48197;42.732;27.192;2023-03-16T02:11:09;98740.44;;;6.53;100.00
62201;BME280;48197;42.732;27.192;2023-03-16T02:13:35;98741.53;;;6.63;100.00
62201;BME280;48197;42.732;27.192;2023-03-16T02:16:05;98750.13;;;6.68;100.00
62201;BME280;48197;42.732;27.192;2023-03-16T02:18:32;98750.84;;;6.76;100.00
62201;BME280;48197;42.732;27.192;2023-03-16T02:21:17;98757.53;;;6.79;100.00
62201;BME280;48197;42.732;27.192;2023-03-16T02:23:45;98759.13;;;6.72;100.00
62201;BME280;48197;42.732;27.192;2023-03-16T02:31:29;98767.06;;;6.60;100.00
62201;BME280;48197;42.732;27.192;2023-03-16T02:33:56;98757.25;;;6.59;100.00
62201;BME280;48197;42.732;27.192;2023-03-16T02:36:24;98761.16;;;6.61;100.00
62201;BME280;48197;42.732;27.192;2023-03-16T02:38:50;98760.38;;;6.64;100.00
62201;BME280;48197;42.732;27.192;2023-03-16T02:41:18;98760.75;;;6.66;100.00
62201;BME280;48197;42.732;27.192;2023-03-16T02:43:52;98751.72;;;6.66;100.00
62201;BME280;48197;42.732;27.192;2023-03-16T02:46:20;98757.22;;;6.66;100.00
62201;BME280;48197;42.732;27.192;2023-03-16T02:49:07;98751.72;;;6.66;100.00
62201;BME280;48197;42.732;27.192;2023-03-16T02:51:36;98756.81;;;6.67;100.00
62201;BME280;48197;42.732;27.192;2023-03-16T02:54:03;98751.31;;;6.67;100.00
62201;BME280;48197;42.732;27.192;2023-03-16T02:56:29;98754.06;;;6.67;100.00
62201;BME280;48197;42.732;27.192;2023-03-16T02:58:55;98758.00;;;6.66;100.00
62201;BME280;48197;42.732;27.192;2023-03-16T03:01:22;98756.03;;;6.67;100.00
62201;BME280;48197;42.732;27.192;2023-03-16T03:03:49;98761.50;;;6.67;100.00
62201;BME280;48197;42.732;27.192;2023-03-16T03:06:16;98763.88;;;6.65;100.00
62201;BME280;48197;42.732;27.192;2023-03-16T03:08:42;98754.50;;;6.62;100.00
62201;BME280;48197;42.732;27.192;2023-03-16T03:11:08;98758.81;;;6.60;100.00
62201;BME280;48197;42.732;27.192;2023-03-16T03:13:35;98757.28;;;6.55;100.00
62201;BME280;48197;42.732;27.192;2023-03-16T03:16:04;98760.81;;;6.52;100.00
62201;BME280;48197;42.732;27.192;2023-03-16T03:18:31;98764.75;;;6.51;100.00
62201;BME280;48197;42.732;27.192;2023-03-16T03:20:59;98761.22;;;6.50;100.00
62201;BME280;48197;42.732;27.192;2023-03-16T03:23:26;98773.00;;;6.47;100.00
62201;BME280;48197;42.732;27.192;2023-03-16T03:25:55;98760.06;;;6.44;100.00
62201;BME280;48197;42.732;27.192;2023-03-16T03:28:22;98762.44;;;6.42;100.00
62201;BME280;48197;42.732;27.192;2023-03-16T03:30:49;98761.69;;;6.38;100.00
62201;BME280;48197;42.732;27.192;2023-03-16T03:33:16;98769.88;;;6.49;100.00
62201;BME280;48197;42.732;27.192;2023-03-16T03:35:43;98764.72;;;6.54;100.00
62201;BME280;48197;42.732;27.192;2023-03-16T03:38:09;98765.88;;;6.57;100.00
62201;BME280;48197;42.732;27.192;2023-03-16T03:40:36;98769.38;;;6.68;100.00
62201;BME280;48197;42.732;27.192;2023-03-16T03:43:03;98772.81;;;6.76;100.00
62201;BME280;48197;42.732;27.192;2023-03-16T03:45:31;98765.00;;;6.74;100.00
62201;BME280;48197;42.732;27.192;2023-03-16T03:47:58;98768.16;;;6.69;100.00
62201;BME280;48197;42.732;27.192;2023-03-16T03:50:24;98771.28;;;6.71;100.00
62201;BME280;48197;42.732;27.192;2023-03-16T03:52:51;98777.16;;;6.73;100.00
62201;BME280;48197;42.732;27.192;2023-03-16T03:55:17;98780.28;;;6.79;100.00
62201;BME280;48197;42.732;27.192;2023-03-16T03:57:44;98781.44;;;6.82;100.00
62201;BME280;48197;42.732;27.192;2023-03-16T04:00:11;98784.13;;;6.89;100.00
62201;BME280;48197;42.732;27.192;2023-03-16T04:02:38;98777.00;;;7.02;100.00
62201;BME280;48197;42.732;27.192;2023-03-16T04:05:06;98779.69;;;7.09;100.00
62201;BME280;48197;42.732;27.192;2023-03-16T04:07:33;98777.69;;;7.13;100.00
62201;BME280;48197;42.732;27.192;2023-03-16T04:10:00;98779.66;;;7.13;100.00
62201;BME280;48197;42.732;27.192;2023-03-16T04:12:26;98776.94;;;7.09;100.00
62201;BME280;48197;42.732;27.192;2023-03-16T04:14:53;98775.00;;;7.06;100.00
62201;BME280;48197;42.732;27.192;2023-03-16T04:17:19;98774.59;;;7.08;100.00
62201;BME280;48197;42.732;27.192;2023-03-16T04:19:47;98781.66;;;7.09;100.00
62201;BME280;48197;42.732;27.192;2023-03-16T04:22:13;98783.69;;;6.98;100.00
62201;BME280;48197;42.732;27.192;2023-03-16T04:24:40;98788.00;;;7.02;100.00
62201;BME280;48197;42.732;27.192;2023-03-16T04:27:08;98785.66;;;6.97;100.00
62201;BME280;48197;42.732;27.192;2023-03-16T04:29:37;98782.94;;;6.93;100.00
62201;BME280;48197;42.732;27.192;2023-03-16T04:32:05;98784.88;;;6.93;100.00
62201;BME280;48197;42.732;27.192;2023-03-16T04:34:32;98782.13;;;6.97;100.00
62201;BME280;48197;42.732;27.192;2023-03-16T04:36:59;98786.81;;;7.00;100.00
62201;BME280;48197;42.732;27.192;2023-03-16T04:39:27;98786.03;;;6.95;100.00
62201;BME280;48197;42.732;27.192;2023-03-16T04:41:54;98780.97;;;6.94;100.00
62201;BME280;48197;42.732;27.192;2023-03-16T04:44:20;98787.22;;;6.98;100.00
62201;BME280;48197;42.732;27.192;2023-03-16T04:46:47;98780.53;;;6.99;100.00
62201;BME280;48197;42.732;27.192;2023-03-16T04:49:13;98782.06;;;7.07;100.00
62201;BME280;48197;42.732;27.192;2023-03-16T04:51:40;98788.97;;;7.26;100.00
62201;BME280;48197;42.732;27.192;2023-03-16T04:54:07;98790.88;;;7.36;100.00
62201;BME280;48197;42.732;27.192;2023-03-16T04:56:34;98789.66;;;7.41;100.00
62201;BME280;48197;42.732;27.192;2023-03-16T04:59:01;98787.66;;;7.42;100.00
62201;BME280;48197;42.732;27.192;2023-03-16T05:01:27;98796.69;;;7.46;100.00
62201;BME280;48197;42.732;27.192;2023-03-16T05:03:54;98798.97;;;7.54;100.00
62201;BME280;48197;42.732;27.192;2023-03-16T05:06:20;98800.16;;;7.53;100.00
62201;BME280;48197;42.732;27.192;2023-03-16T05:08:47;98805.28;;;7.51;100.00
62201;BME280;48197;42.732;27.192;2023-03-16T05:11:13;98807.97;;;7.59;100.00
62201;BME280;48197;42.732;27.192;2023-03-16T05:13:40;98806.78;;;7.60;100.00
62201;BME280;48197;42.732;27.192;2023-03-16T05:16:07;98800.84;;;7.61;100.00
62201;BME280;48197;42.732;27.192;2023-03-16T05:18:33;98816.97;;;7.63;100.00
62201;BME280;48197;42.732;27.192;2023-03-16T05:21:00;98817.31;;;7.68;100.00
62201;BME280;48197;42.732;27.192;2023-03-16T05:23:26;98817.69;;;7.70;100.00
62201;BME280;48197;42.732;27.192;2023-03-16T05:25:53;98831.38;;;7.74;100.00
62201;BME280;48197;42.732;27.192;2023-03-16T05:28:22;98839.25;;;7.75;100.00
62201;BME280;48197;42.732;27.192;2023-03-16T05:30:48;98835.28;;;7.76;100.00
62201;BME280;48197;42.732;27.192;2023-03-16T05:33:16;98842.00;;;7.75;100.00
62201;BME280;48197;42.732;27.192;2023-03-16T05:35:42;98840.09;;;7.69;100.00
62201;BME280;48197;42.732;27.192;2023-03-16T05:38:08;98846.53;;;7.51;100.00
62201;BME280;48197;42.732;27.192;2023-03-16T05:40:35;98847.94;;;7.14;100.00
62201;BME280;48197;42.732;27.192;2023-03-16T05:43:02;98856.81;;;6.77;100.00
62201;BME280;48197;42.732;27.192;2023-03-16T05:45:29;98846.69;;;6.56;100.00
62201;BME280;48197;42.732;27.192;2023-03-16T05:48:02;98848.72;;;6.38;100.00
62201;BME280;48197;42.732;27.192;2023-03-16T05:50:30;98850.75;;;6.19;100.00
62201;BME280;48197;42.732;27.192;2023-03-16T05:52:57;98851.53;;;6.05;100.00
62201;BME280;48197;42.732;27.192;2023-03-16T05:55:24;98862.88;;;5.93;100.00
62201;BME280;48197;42.732;27.192;2023-03-16T05:57:50;98867.19;;;5.90;100.00
62201;BME280;48197;42.732;27.192;2023-03-16T06:00:17;98871.53;;;5.84;100.00
62201;BME280;48197;42.732;27.192;2023-03-16T06:02:45;98871.91;;;5.86;100.00
62201;BME280;48197;42.732;27.192;2023-03-16T06:05:14;98879.75;;;5.84;100.00
62201;BME280;48197;42.732;27.192;2023-03-16T06:07:41;98874.25;;;5.84;100.00
62201;BME280;48197;42.732;27.192;2023-03-16T06:10:08;98868.78;;;5.84;100.00
62201;BME280;48197;42.732;27.192;2023-03-16T06:12:36;98876.59;;;5.82;100.00
62201;BME280;48197;42.732;27.192;2023-03-16T06:15:04;98872.31;;;5.81;100.00
62201;BME280;48197;42.732;27.192;2023-03-16T06:17:35;98869.97;;;5.83;100.00
62201;BME280;48197;42.732;27.192;2023-03-16T06:20:04;98877.81;;;5.85;100.00
62201;BME280;48197;42.732;27.192;2023-03-16T06:22:36;98886.81;;;5.85;100.00
62201;BME280;48197;42.732;27.192;2023-03-16T06:25:04;98891.09;;;5.86;100.00
62201;BME280;48197;42.732;27.192;2023-03-16T06:27:31;98895.81;;;5.89;100.00
62201;BME280;48197;42.732;27.192;2023-03-16T06:29:57;98891.50;;;5.92;100.00
62201;BME280;48197;42.732;27.192;2023-03-16T06:32:24;98897.41;;;6.01;100.00
62201;BME280;48197;42.732;27.192;2023-03-16T06:34:50;98913.06;;;6.08;100.00
62201;BME280;48197;42.732;27.192;2023-03-16T06:37:16;98908.38;;;6.19;100.00
62201;BME280;48197;42.732;27.192;2023-03-16T06:39:43;98922.44;;;6.28;100.00
62201;BME280;48197;42.732;27.192;2023-03-16T06:42:10;98928.72;;;6.32;100.00
62201;BME280;48197;42.732;27.192;2023-03-16T06:44:37;98925.97;;;6.32;100.00
62201;BME280;48197;42.732;27.192;2023-03-16T06:47:03;98925.56;;;6.38;100.00
62201;BME280;48197;42.732;27.192;2023-03-16T06:49:30;98938.09;;;6.46;100.00
62201;BME280;48197;42.732;27.192;2023-03-16T06:51:57;98953.41;;;6.43;100.00
62201;BME280;48197;42.732;27.192;2023-03-16T06:54:24;98943.19;;;6.47;100.00
62201;BME280;48197;42.732;27.192;2023-03-16T06:56:50;98927.13;;;6.53;100.00
62201;BME280;48197;42.732;27.192;2023-03-16T06:59:17;98951.78;;;6.64;100.00
62201;BME280;48197;42.732;27.192;2023-03-16T07:01:43;98956.09;;;6.68;100.00
62201;BME280;48197;42.732;27.192;2023-03-16T07:04:10;98943.91;;;6.69;100.00
62201;BME280;48197;42.732;27.192;2023-03-16T07:06:38;98939.63;;;6.65;100.00
62201;BME280;48197;42.732;27.192;2023-03-16T07:09:04;98962.78;;;6.57;100.00
62201;BME280;48197;42.732;27.192;2023-03-16T07:11:31;98959.25;;;6.56;100.00
62201;BME280;48197;42.732;27.192;2023-03-16T07:13:57;98967.09;;;6.50;100.00
62201;BME280;48197;42.732;27.192;2023-03-16T07:16:24;98963.22;;;6.41;100.00
62201;BME280;48197;42.732;27.192;2023-03-16T07:18:51;98971.03;;;6.31;100.00
62201;BME280;48197;42.732;27.192;2023-03-16T07:21:17;98979.69;;;6.23;100.00
62201;BME280;48197;42.732;27.192;2023-03-16T07:23:45;98977.72;;;6.16;100.00
62201;BME280;48197;42.732;27.192;2023-03-16T07:26:11;98989.09;;;6.11;100.00
62201;BME280;48197;42.732;27.192;2023-03-16T07:28:38;98972.63;;;6.07;100.00
62201;BME280;48197;42.732;27.192;2023-03-16T07:31:05;98977.72;;;6.05;100.00
62201;BME280;48197;42.732;27.192;2023-03-16T07:33:32;98982.06;;;6.06;100.00
62201;BME280;48197;42.732;27.192;2023-03-16T07:36:00;98986.34;;;6.07;100.00
62201;BME280;48197;42.732;27.192;2023-03-16T07:38:29;98988.69;;;6.05;100.00
62201;BME280;48197;42.732;27.192;2023-03-16T07:40:58;98994.19;;;6.09;100.00
62201;BME280;48197;42.732;27.192;2023-03-16T07:43:24;98990.28;;;6.10;100.00
62201;BME280;48197;42.732;27.192;2023-03-16T07:45:51;99003.19;;;6.06;100.00
62201;BME280;48197;42.732;27.192;2023-03-16T07:48:19;98995.00;;;6.02;100.00
62201;BME280;48197;42.732;27.192;2023-03-16T07:50:49;99006.72;;;5.99;100.00
62201;BME280;48197;42.732;27.192;2023-03-16T07:53:15;98999.69;;;5.98;100.00
62201;BME280;48197;42.732;27.192;2023-03-16T07:55:42;98993.81;;;5.96;100.00
62201;BME280;48197;42.732;27.192;2023-03-16T07:58:09;99001.59;;;5.90;100.00
62201;BME280;48197;42.732;27.192;2023-03-16T08:00:37;98999.66;;;5.87;100.00
62201;BME280;48197;42.732;27.192;2023-03-16T08:03:03;99019.63;;;5.88;100.00
62201;BME280;48197;42.732;27.192;2023-03-16T08:05:29;99004.34;;;5.87;100.00
62201;BME280;48197;42.732;27.192;2023-03-16T08:07:57;99017.66;;;5.88;100.00
62201;BME280;48197;42.732;27.192;2023-03-16T08:10:25;99012.97;;;5.89;100.00
62201;BME280;48197;42.732;27.192;2023-03-16T08:12:51;99014.16;;;5.91;100.00
62201;BME280;48197;42.732;27.192;2023-03-16T08:15:18;99001.22;;;5.92;100.00
62201;BME280;48197;42.732;27.192;2023-03-16T08:17:45;99018.06;;;5.94;100.00
62201;BME280;48197;42.732;27.192;2023-03-16T08:20:12;99018.09;;;5.98;100.00
62201;BME280;48197;42.732;27.192;2023-03-16T08:22:40;99028.28;;;6.01;100.00
62201;BME280;48197;42.732;27.192;2023-03-16T08:25:07;99027.13;;;6.02;100.00
62201;BME280;48197;42.732;27.192;2023-03-16T08:27:37;99029.47;;;6.03;100.00
62201;BME280;48197;42.732;27.192;2023-03-16T08:30:04;99027.13;;;6.05;100.00
62201;BME280;48197;42.732;27.192;2023-03-16T08:32:32;99033.41;;;6.13;100.00
62201;BME280;48197;42.732;27.192;2023-03-16T08:34:59;99038.88;;;6.13;100.00
62201;BME280;48197;42.732;27.192;2023-03-16T08:37:25;99028.28;;;6.11;100.00
62201;BME280;48197;42.732;27.192;2023-03-16T08:39:52;99018.91;;;6.09;100.00
62201;BME280;48197;42.732;27.192;2023-03-16T08:42:19;99040.47;;;6.10;100.00
62201;BME280;48197;42.732;27.192;2023-03-16T08:44:46;99042.00;;;6.11;100.00
62201;BME280;48197;42.732;27.192;2023-03-16T08:47:17;99035.75;;;6.11;100.00
62201;BME280;48197;42.732;27.192;2023-03-16T08:49:44;99038.47;;;6.07;100.00
62201;BME280;48197;42.732;27.192;2023-03-16T08:52:10;99042.03;;;6.04;100.00
62201;BME280;48197;42.732;27.192;2023-03-16T08:54:37;99040.81;;;6.05;100.00
62201;BME280;48197;42.732;27.192;2023-03-16T08:57:04;99049.06;;;6.09;100.00
62201;BME280;48197;42.732;27.192;2023-03-16T08:59:30;99055.72;;;6.11;100.00
62201;BME280;48197;42.732;27.192;2023-03-16T09:01:57;99045.94;;;6.14;100.00
62201;BME280;48197;42.732;27.192;2023-03-16T09:04:22;99045.16;;;6.13;100.00
62201;BME280;48197;42.732;27.192;2023-03-16T09:06:49;99052.59;;;6.09;100.00
62201;BME280;48197;42.732;27.192;2023-03-16T09:09:18;99056.91;;;6.10;100.00
62201;BME280;48197;42.732;27.192;2023-03-16T09:11:46;99058.06;;;6.06;100.00
62201;BME280;48197;42.732;27.192;2023-03-16T09:14:15;99063.56;;;5.99;100.00
62201;BME280;48197;42.732;27.192;2023-03-16T09:16:41;99072.91;;;5.87;100.00
62201;BME280;48197;42.732;27.192;2023-03-16T09:19:09;99065.44;;;5.80;100.00
62201;BME280;48197;42.732;27.192;2023-03-16T09:21:37;99074.06;;;5.75;100.00
62201;BME280;48197;42.732;27.192;2023-03-16T09:24:04;99089.72;;;5.71;100.00
62201;BME280;48197;42.732;27.192;2023-03-16T09:26:33;99083.84;;;5.72;100.00
62201;BME280;48197;42.732;27.192;2023-03-16T09:29:00;99082.28;;;5.75;100.00
62201;BME280;48197;42.732;27.192;2023-03-16T09:31:27;99077.94;;;5.67;100.00
62201;BME280;48197;42.732;27.192;2023-03-16T09:33:54;99094.78;;;5.62;100.00
62201;BME280;48197;42.732;27.192;2023-03-16T09:36:20;99094.38;;;5.60;100.00
62201;BME280;48197;42.732;27.192;2023-03-16T09:38:47;99074.38;;;5.56;100.00
62201;BME280;48197;42.732;27.192;2023-03-16T10:09:58;99108.47;;;5.58;100.00
62201;BME280;48197;42.732;27.192;2023-03-16T10:12:30;99122.94;;;5.59;100.00
62201;BME280;48197;42.732;27.192;2023-03-16T10:17:34;99130.00;;;5.60;100.00
62201;BME280;48197;42.732;27.192;2023-03-16T10:20:05;99118.66;;;5.65;100.00
62201;BME280;48197;42.732;27.192;2023-03-16T10:22:36;99129.63;;;5.65;100.00
62201;BME280;48197;42.732;27.192;2023-03-16T10:27:40;99121.06;;;5.70;100.00
62201;BME280;48197;42.732;27.192;2023-03-16T10:30:18;99125.75;;;5.73;100.00
62201;BME280;48197;42.732;27.192;2023-03-16T10:32:47;99126.56;;;5.77;100.00
62201;BME280;48197;42.732;27.192;2023-03-16T10:43:44;99129.38;;;5.99;100.00
62201;BME280;48197;42.732;27.192;2023-03-16T10:46:12;99116.47;;;5.96;100.00
62201;BME280;48197;42.732;27.192;2023-03-16T10:48:39;99119.13;;;5.81;100.00
62201;BME280;48197;42.732;27.192;2023-03-16T10:51:11;99117.53;;;5.80;100.00
62201;BME280;48197;42.732;27.192;2023-03-16T10:53:42;99117.13;;;5.71;100.00
62201;BME280;48197;42.732;27.192;2023-03-16T10:56:30;99116.31;;;5.60;100.00
62201;BME280;48197;42.732;27.192;2023-03-16T10:58:59;99108.00;;;5.45;100.00
62201;BME280;48197;42.732;27.192;2023-03-16T11:01:26;99113.50;;;5.45;100.00
62201;BME280;48197;42.732;27.192;2023-03-16T11:03:55;99123.25;;;5.39;100.00
62201;BME280;48197;42.732;27.192;2023-03-16T11:06:23;99114.25;;;5.39;100.00
62201;BME280;48197;42.732;27.192;2023-03-16T11:08:51;99111.50;;;5.39;100.00
62201;BME280;48197;42.732;27.192;2023-03-16T11:11:29;99120.94;;;5.45;100.00
62201;BME280;48197;42.732;27.192;2023-03-16T11:14:02;99108.03;;;5.52;100.00
62201;BME280;48197;42.732;27.192;2023-03-16T11:19:11;99126.03;;;5.50;100.00
62201;BME280;48197;42.732;27.192;2023-03-16T11:27:10;99115.78;;;5.32;100.00
62201;BME280;48197;42.732;27.192;2023-03-16T11:32:35;99109.09;;;5.23;100.00
62201;BME280;48197;42.732;27.192;2023-03-16T11:35:10;99117.28;;;5.19;100.00
62201;BME280;48197;42.732;27.192;2023-03-16T11:37:47;99122.34;;;5.17;100.00
62201;BME280;48197;42.732;27.192;2023-03-16T11:40:19;99128.28;;;5.23;100.00
62201;BME280;48197;42.732;27.192;2023-03-16T11:45:40;99125.06;;;5.14;100.00
62201;BME280;48197;42.732;27.192;2023-03-16T11:58:36;99130.69;;;4.80;100.00
62201;BME280;48197;42.732;27.192;2023-03-16T12:01:10;99150.63;;;4.77;100.00
62201;BME280;48197;42.732;27.192;2023-03-16T12:06:54;99132.63;;;4.76;100.00
62201;BME280;48197;42.732;27.192;2023-03-16T12:09:09;99142.03;;;4.75;100.00
62201;BME280;48197;42.732;27.192;2023-03-16T12:11:52;99140.84;;;4.72;100.00
62201;BME280;48197;42.732;27.192;2023-03-16T12:14:30;99129.47;;;4.70;100.00
62201;BME280;48197;42.732;27.192;2023-03-16T12:17:00;99147.03;;;4.69;100.00
62201;BME280;48197;42.732;27.192;2023-03-16T12:19:43;99159.13;;;4.64;100.00
62201;BME280;48197;42.732;27.192;2023-03-16T12:24:39;99154.47;;;4.68;100.00
62201;BME280;48197;42.732;27.192;2023-03-16T12:27:11;99150.56;;;4.66;100.00
62201;BME280;48197;42.732;27.192;2023-03-16T12:32:26;99159.09;;;4.61;100.00
62201;BME280;48197;42.732;27.192;2023-03-16T12:38:00;99185.63;;;4.53;100.00
62201;BME280;48197;42.732;27.192;2023-03-16T12:45:32;99204.19;;;4.33;100.00
62201;BME280;48197;42.732;27.192;2023-03-16T12:50:50;99210.03;;;4.32;100.00
62201;BME280;48197;42.732;27.192;2023-03-16T12:53:28;99206.13;;;4.29;100.00
62201;BME280;48197;42.732;27.192;2023-03-16T12:56:04;99208.38;;;4.23;100.00
62201;BME280;48197;42.732;27.192;2023-03-16T12:58:31;99214.69;;;4.27;100.00
62201;BME280;48197;42.732;27.192;2023-03-16T13:00:58;99222.84;;;4.24;100.00
62201;BME280;48197;42.732;27.192;2023-03-16T13:03:25;99218.16;;;4.24;100.00
62201;BME280;48197;42.732;27.192;2023-03-16T13:05:56;99222.78;;;4.20;100.00
62201;BME280;48197;42.732;27.192;2023-03-16T13:08:25;99229.88;;;4.21;100.00
62201;BME280;48197;42.732;27.192;2023-03-16T13:11:25;99216.94;;;4.18;100.00
62201;BME280;48197;42.732;27.192;2023-03-16T13:16:29;99232.97;;;4.20;100.00
62201;BME280;48197;42.732;27.192;2023-03-16T13:18:57;99233.66;;;4.13;100.00
62201;BME280;48197;42.732;27.192;2023-03-16T13:21:34;99246.63;;;4.16;100.00
62201;BME280;48197;42.732;27.192;2023-03-16T13:26:50;99252.75;;;4.09;100.00
62201;BME280;48197;42.732;27.192;2023-03-16T13:29:19;99247.69;;;4.08;100.00
62201;BME280;48197;42.732;27.192;2023-03-16T13:31:47;99251.97;;;4.09;100.00
62201;BME280;48197;42.732;27.192;2023-03-16T13:34:18;99251.56;;;4.07;100.00
62201;BME280;48197;42.732;27.192;2023-03-16T13:36:45;99251.97;;;4.05;100.00
62201;BME280;48197;42.732;27.192;2023-03-16T13:39:16;99225.34;;;4.02;100.00
62201;BME280;48197;42.732;27.192;2023-03-16T13:44:30;99260.47;;;4.00;100.00
62201;BME280;48197;42.732;27.192;2023-03-16T13:47:01;99268.66;;;4.00;100.00
62201;BME280;48197;42.732;27.192;2023-03-16T13:49:27;99254.63;;;4.02;100.00
62201;BME280;48197;42.732;27.192;2023-03-16T13:51:55;99259.31;;;4.01;100.00
62201;BME280;48197;42.732;27.192;2023-03-16T13:54:24;99269.72;;;3.92;100.00
62201;BME280;48197;42.732;27.192;2023-03-16T13:56:52;99263.06;;;3.89;100.00
62201;BME280;48197;42.732;27.192;2023-03-16T13:59:19;99252.19;;;3.93;100.00
62201;BME280;48197;42.732;27.192;2023-03-16T14:01:47;99261.53;;;3.92;100.00
62201;BME280;48197;42.732;27.192;2023-03-16T14:04:14;99256.41;;;3.87;100.00
62201;BME280;48197;42.732;27.192;2023-03-16T14:06:55;99261.09;;;3.86;100.00
62201;BME280;48197;42.732;27.192;2023-03-16T14:09:23;99271.28;;;3.89;100.00
62201;BME280;48197;42.732;27.192;2023-03-16T14:11:53;99256.47;;;3.91;100.00
62201;BME280;48197;42.732;27.192;2023-03-16T14:17:22;99291.88;;;3.83;100.00
62201;BME280;48197;42.732;27.192;2023-03-16T14:20:09;99281.69;;;3.80;100.00
62201;BME280;48197;42.732;27.192;2023-03-16T14:22:40;99289.91;;;3.80;100.00
62201;BME280;48197;42.732;27.192;2023-03-16T14:25:09;99310.59;;;3.81;100.00
62201;BME280;48197;42.732;27.192;2023-03-16T14:27:44;99286.31;;;3.76;100.00
62201;BME280;48197;42.732;27.192;2023-03-16T14:30:22;99287.03;;;3.73;100.00
62201;BME280;48197;42.732;27.192;2023-03-16T14:32:54;99291.72;;;3.73;100.00
62201;BME280;48197;42.732;27.192;2023-03-16T14:35:23;99292.47;;;3.70;100.00
62201;BME280;48197;42.732;27.192;2023-03-16T14:37:51;99298.72;;;3.70;100.00
62201;BME280;48197;42.732;27.192;2023-03-16T14:42:51;99294.31;;;3.62;100.00
62201;BME280;48197;42.732;27.192;2023-03-16T14:45:19;99300.94;;;3.61;100.00